Etusivu
METAR-TAF:

METAR-TAF

Lentoasemat :

León, Meksiko

Leveyspiiri: 21-00N, Pituuspiiri: 101-29W, korkeus merenpinnasta: 1819 m

Tämänhetkinen sää

Tämä raportti tehtiin 1 tunti ja 1 minuuttia sitten, kello 11.42 UTC
tyyntä
Lämpötila 13°C
Kosteus 44%
Ilmanpaine 1026 hPa
Näkyvyys: 12.9 km
selkeää

METAR: MMLO 081142Z 00000KT 8SM SKC 13/01 A3031 RMK SLP111 54000 970

Aika: 07:43 (12:43 UTC)

Sääennuste

Tämä raportti tehtiin 8 tuntia ja 18 minuuttia sitten, kello 04.25 UTC
Ennuste voimassa 08. päivästä klo 06 UTC - 09. päivään klo 06 UTC
Tuuli kn pohjoisesta
Näkyvyys: 10 km
Hajanaisia pilviä 8000 ft:n korkeudessa
From 08. päivästä klo 1800 UTC
Tuuli 10 kn lounaasta
Näkyvyys: 10 km
Hajanaisia pilviä 20000 ft:n korkeudessa
Tulossa
09. päivästä klo 02 UTC - 09. päivään klo 03 UTC
Tuuli kn pohjoisesta

TAF: MMLO 080425Z 0806/0906 00000KT P6SM SCT080 FM081800 22010KT P6SM SCT200 BECMG 0902/0903 00000KT

Säähavainnot ja -ennusteet yli 4000 lentoasemalta (METAR- ja TAF-raportit).

Käytössä olevat sääasemat on merkitty karttaan keltaisilla ja punaisilla pisteillä.

Aseta hiiri pisteen päälle nähdäksesi sääaseman nimen.

Klikkaa sitten nähdäksesi säähavainnot ja -ennusteet.

Kartan vaihtaminen: klikkaa mustalla rastilla varustettuja vihreitä pisteitä, niin voit zoomata sisään; viivalla varustettua vihreää pistettä, niin voit zoomata ulos tai vihreitä nuolia, niin pääset viereisille kartoille.


METAR-TAF: